createdAt,value
2022-08-07T00:00:46.309Z,52.76
2022-08-07T00:02:37.155Z,59.11
2022-08-07T00:02:46.332Z,45.93
2022-08-07T00:03:47.430Z,51.37
2022-08-07T00:04:45.475Z,57.28
2022-08-07T00:05:45.276Z,47.94
2022-08-07T00:06:51.929Z,52.79
2022-08-07T00:07:46.253Z,48.44
2022-08-07T00:08:45.243Z,53.88
2022-08-07T00:10:04.700Z,52.48
2022-08-07T00:10:48.095Z,49.59
2022-08-07T00:11:54.476Z,50.92
2022-08-07T00:12:59.708Z,53.70
2022-08-07T00:13:46.206Z,56.52
2022-08-07T00:14:45.195Z,50.22
2022-08-07T00:15:46.774Z,54.25
2022-08-07T00:16:46.185Z,53.90
2022-08-07T00:17:45.171Z,50.47
2022-08-07T00:18:45.170Z,55.23
2022-08-07T00:20:02.619Z,51.09
2022-08-07T00:20:46.149Z,54.46
2022-08-07T00:21:55.547Z,51.61
2022-08-07T00:22:51.545Z,59.62
2022-08-07T00:23:46.133Z,55.10
2022-08-07T00:24:45.121Z,52.16
2022-08-07T00:25:45.828Z,49.09
2022-08-07T00:26:58.927Z,46.29
2022-08-07T00:27:52.136Z,49.38
2022-08-07T00:28:56.619Z,50.51
2022-08-07T00:29:46.079Z,54.08
2022-08-07T00:30:45.089Z,56.46
2022-08-07T00:33:47.620Z,48.74
2022-08-07T00:34:45.534Z,59.07
2022-08-07T00:35:49.693Z,43.62
2022-08-07T00:36:46.613Z,53.38
2022-08-07T00:37:47.973Z,45.11
2022-08-07T00:38:46.608Z,48.11
2022-08-07T00:39:46.601Z,49.31
2022-08-07T00:40:47.587Z,55.34
2022-08-07T00:41:53.819Z,55.68
2022-08-07T00:42:47.570Z,54.26
2022-08-07T00:44:01.309Z,50.12
2022-08-07T00:44:47.547Z,46.08
2022-08-07T00:45:46.723Z,51.14
2022-08-07T00:46:46.533Z,48.56
2022-08-07T00:48:08.866Z,49.49
2022-08-07T00:48:49.995Z,54.87
2022-08-07T00:50:19.825Z,55.65
2022-08-07T00:50:51.537Z,50.14
2022-08-07T00:51:57.538Z,49.44
2022-08-07T00:52:47.707Z,50.06
2022-08-07T00:53:50.640Z,49.52
2022-08-07T00:54:47.492Z,54.25
2022-08-07T00:56:03.301Z,53.29
2022-08-07T00:56:49.797Z,52.76
2022-08-07T00:57:55.764Z,51.86
2022-08-07T00:58:49.859Z,50.88
2022-08-07T00:59:47.426Z,50.60
2022-08-07T01:00:53.923Z,52.42
2022-08-07T01:01:48.488Z,52.36
2022-08-07T01:02:46.403Z,43.70
2022-08-07T01:03:55.928Z,50.67
2022-08-07T01:04:47.391Z,43.24
2022-08-07T01:05:51.630Z,51.31
2022-08-07T01:06:47.373Z,48.54
2022-08-07T01:07:46.366Z,46.54
2022-08-07T01:08:53.775Z,46.64
2022-08-07T01:10:05.988Z,50.23
2022-08-07T01:10:47.648Z,49.99
2022-08-07T01:12:27.536Z,53.28
2022-08-07T01:12:54.078Z,54.28
2022-08-07T01:13:55.916Z,55.53
2022-08-07T01:14:47.303Z,49.23
2022-08-07T01:16:00.781Z,43.23
2022-08-07T01:16:48.105Z,53.42
2022-08-07T01:17:46.302Z,49.79
2022-08-07T01:18:46.279Z,45.58
2022-08-07T01:19:54.390Z,54.59
2022-08-07T01:20:57.219Z,54.28
2022-08-07T01:21:47.256Z,52.72
2022-08-07T01:22:47.001Z,49.38
2022-08-07T01:23:47.231Z,45.49
2022-08-07T01:24:47.484Z,47.34
2022-08-07T01:25:55.222Z,42.64
2022-08-07T01:26:47.905Z,47.50
2022-08-07T01:27:50.040Z,59.90
2022-08-07T01:28:48.360Z,48.68
2022-08-07T01:29:46.188Z,44.56
2022-08-07T01:30:47.031Z,51.58
2022-08-07T01:31:48.359Z,53.63
2022-08-07T01:32:46.171Z,49.62
2022-08-07T01:33:56.068Z,44.14
2022-08-07T01:34:49.147Z,50.12
2022-08-07T01:35:53.239Z,50.02
2022-08-07T01:36:52.735Z,51.48
2022-08-07T01:37:47.128Z,57.23
2022-08-07T01:38:46.112Z,46.95
2022-08-07T01:39:46.876Z,51.42
2022-08-07T01:40:46.094Z,46.56
2022-08-07T01:42:07.623Z,55.28
2022-08-07T01:42:57.524Z,57.32
2022-08-07T01:43:47.076Z,52.50
2022-08-07T01:44:47.867Z,49.60
2022-08-07T01:45:46.560Z,51.18
2022-08-07T01:46:46.047Z,44.83
2022-08-07T01:48:20.069Z,49.67
2022-08-07T01:48:47.599Z,48.17
2022-08-07T01:49:46.029Z,49.01
2022-08-07T01:50:46.022Z,45.27
2022-08-07T01:52:02.301Z,48.49
2022-08-07T01:52:49.385Z,55.34
2022-08-07T01:54:09.428Z,54.06
2022-08-07T01:54:46.987Z,49.60
2022-08-07T01:55:45.983Z,53.81
2022-08-07T01:56:49.362Z,44.13
2022-08-07T01:58:01.259Z,47.45
2022-08-07T01:58:46.950Z,53.38
2022-08-07T01:59:45.950Z,45.78
2022-08-07T02:00:49.994Z,49.62
2022-08-07T02:01:59.646Z,47.52
2022-08-07T02:03:19.177Z,49.23
2022-08-07T02:03:50.143Z,47.06
2022-08-07T02:04:52.584Z,50.85
2022-08-07T02:05:59.398Z,46.97
2022-08-07T02:06:46.882Z,44.65
2022-08-07T02:07:50.463Z,52.61
2022-08-07T02:08:46.863Z,48.51
2022-08-07T02:09:52.796Z,55.45
2022-08-07T02:10:48.768Z,52.66
2022-08-07T02:12:04.032Z,47.72
2022-08-07T02:12:50.073Z,44.14
2022-08-07T02:13:57.512Z,54.04
2022-08-07T02:14:46.815Z,44.85
2022-08-07T02:15:45.806Z,51.73
2022-08-07T02:16:45.802Z,53.14
2022-08-07T02:17:49.576Z,49.48
2022-08-07T02:18:47.252Z,50.92
2022-08-07T02:20:05.846Z,51.20
2022-08-07T02:20:48.706Z,50.44
2022-08-07T02:21:56.224Z,48.42
2022-08-07T02:22:46.748Z,57.58
2022-08-07T02:23:46.744Z,56.46
2022-08-07T02:24:45.748Z,54.57
2022-08-07T02:26:31.973Z,53.45
2022-08-07T02:26:46.716Z,46.88
2022-08-07T02:27:51.910Z,52.38
2022-08-07T02:28:46.700Z,48.31
2022-08-07T02:29:50.921Z,51.18
2022-08-07T02:30:46.676Z,53.64
2022-08-07T02:31:45.679Z,51.82
2022-08-07T02:33:00.581Z,44.83
2022-08-07T02:34:03.295Z,45.57
2022-08-07T02:34:48.971Z,48.15
2022-08-07T02:36:30.727Z,47.37
2022-08-07T02:36:46.628Z,54.23
2022-08-07T02:37:45.626Z,45.98
2022-08-07T02:38:50.868Z,50.11
2022-08-07T02:40:02.526Z,46.21
2022-08-07T02:40:46.785Z,53.09
2022-08-07T02:41:50.499Z,50.78
2022-08-07T02:42:46.577Z,50.62
2022-08-07T02:43:48.935Z,50.01
2022-08-07T02:44:45.775Z,53.93
2022-08-07T02:46:00.593Z,46.27
2022-08-07T02:46:52.506Z,47.42
2022-08-07T02:47:49.139Z,60.29
2022-08-07T02:48:47.055Z,49.25
2022-08-07T02:49:57.993Z,51.80
2022-08-07T02:50:46.523Z,42.61
2022-08-07T02:51:51.835Z,47.66
2022-08-07T02:52:48.702Z,50.26
2022-08-07T02:53:45.498Z,46.45
2022-08-07T02:54:45.484Z,48.97
2022-08-07T02:56:02.662Z,45.54
2022-08-07T02:56:46.466Z,48.19
2022-08-07T02:57:46.727Z,50.98
2022-08-07T02:58:47.350Z,47.23
2022-08-07T02:59:45.449Z,50.18
2022-08-07T03:00:47.525Z,45.46
2022-08-07T03:01:47.260Z,54.01
2022-08-07T03:02:54.444Z,56.78
2022-08-07T03:03:50.570Z,53.60
2022-08-07T03:04:45.398Z,53.40
2022-08-07T03:05:45.410Z,55.38
2022-08-07T03:06:45.871Z,49.31
2022-08-07T03:08:07.598Z,55.95
2022-08-07T03:08:46.367Z,53.91
2022-08-07T03:09:48.241Z,56.33
2022-08-07T03:10:47.369Z,51.75
2022-08-07T03:11:52.123Z,48.18
2022-08-07T03:12:46.335Z,50.47
2022-08-07T03:13:49.660Z,51.19
2022-08-07T03:14:48.398Z,51.83
2022-08-07T03:15:56.716Z,52.80
2022-08-07T03:16:46.300Z,57.03
2022-08-07T03:17:53.955Z,56.21
2022-08-07T03:18:46.285Z,55.78
2022-08-07T03:19:45.276Z,47.20
2022-08-07T03:20:46.285Z,51.89
2022-08-07T03:21:50.318Z,55.31
2022-08-07T03:22:50.368Z,56.03
2022-08-07T03:24:19.443Z,48.27
2022-08-07T03:24:46.232Z,49.69
2022-08-07T03:25:45.226Z,56.05
2022-08-07T03:26:51.230Z,56.76
2022-08-07T03:28:09.371Z,51.60
2022-08-07T03:28:46.204Z,51.94
2022-08-07T03:29:49.645Z,50.28
2022-08-07T03:30:46.180Z,58.19
2022-08-07T03:31:46.376Z,56.01
2022-08-07T03:32:48.994Z,53.57
2022-08-07T03:33:46.151Z,52.98
2022-08-07T03:34:47.598Z,54.70
2022-08-07T03:35:50.543Z,55.05
2022-08-07T03:36:45.136Z,48.62
2022-08-07T03:37:46.220Z,49.65
2022-08-07T03:38:46.116Z,51.50
2022-08-07T03:39:59.316Z,54.54
2022-08-07T03:40:46.217Z,55.25
2022-08-07T03:41:47.475Z,53.63
2022-08-07T03:42:45.094Z,53.76
2022-08-07T03:43:57.096Z,54.83
2022-08-07T03:44:47.098Z,52.77
2022-08-07T03:45:47.794Z,57.39
2022-08-07T03:47:10.837Z,55.21
2022-08-07T03:47:47.842Z,55.12
2022-08-07T03:49:01.973Z,60.51
2022-08-07T03:49:51.940Z,53.60
2022-08-07T03:50:55.844Z,50.55
2022-08-07T03:51:47.244Z,49.34
2022-08-07T03:52:45.007Z,53.50
2022-08-07T03:54:05.915Z,56.97
2022-08-07T03:54:54.444Z,46.60
2022-08-07T03:55:58.365Z,46.66
2022-08-07T03:57:07.089Z,57.43
2022-08-07T03:58:33.650Z,52.88
2022-08-07T03:59:09.283Z,54.29
2022-08-07T03:59:46.481Z,52.43
2022-08-07T04:00:46.480Z,47.17
2022-08-07T04:01:45.728Z,54.13
2022-08-07T04:02:47.334Z,49.98
2022-08-07T04:03:53.407Z,55.03
2022-08-07T04:04:45.905Z,46.77
2022-08-07T04:05:45.590Z,54.42
2022-08-07T04:06:44.884Z,48.57
2022-08-07T04:07:45.239Z,51.86
2022-08-07T04:08:44.871Z,53.52
2022-08-07T04:09:50.525Z,54.30
2022-08-07T04:10:54.427Z,51.96
2022-08-07T04:12:25.455Z,43.19
2022-08-07T04:12:46.470Z,52.57
2022-08-07T04:14:09.451Z,55.15
2022-08-07T04:14:47.787Z,53.60
2022-08-07T04:15:45.598Z,52.09
2022-08-07T04:16:58.338Z,54.82
2022-08-07T04:18:58.500Z,54.61
2022-08-07T04:19:01.406Z,53.98
2022-08-07T04:19:52.764Z,59.55
2022-08-07T04:20:54.603Z,52.88
2022-08-07T04:21:59.479Z,47.18
2022-08-07T04:22:53.419Z,53.69
2022-08-07T04:24:04.480Z,50.59
2022-08-07T04:24:45.746Z,46.25
2022-08-07T04:25:44.739Z,47.37
2022-08-07T04:26:44.724Z,49.03
2022-08-07T04:27:46.075Z,53.33
2022-08-07T04:28:45.710Z,55.45
2022-08-07T04:29:58.538Z,53.88
2022-08-07T04:30:56.902Z,54.34
2022-08-07T04:32:03.052Z,44.02
2022-08-07T04:32:47.872Z,58.81
2022-08-07T04:33:44.671Z,48.21
2022-08-07T04:34:44.671Z,48.94
2022-08-07T04:35:44.649Z,54.99
2022-08-07T04:36:48.691Z,52.98
2022-08-07T04:38:03.368Z,48.66
2022-08-07T04:38:46.562Z,49.74
2022-08-07T04:39:47.922Z,50.21
2022-08-07T04:40:51.887Z,53.30
2022-08-07T04:41:50.464Z,58.87
2022-08-07T04:42:45.602Z,54.24
2022-08-07T04:44:12.654Z,49.98
2022-08-07T04:45:02.723Z,53.54
2022-08-07T04:46:00.979Z,53.79
2022-08-07T04:46:59.639Z,53.23
2022-08-07T04:47:58.887Z,49.60
2022-08-07T04:48:45.556Z,58.94
2022-08-07T04:49:47.362Z,57.21
2022-08-07T04:50:52.810Z,54.95
2022-08-07T04:51:45.530Z,56.21
2022-08-07T04:52:51.237Z,56.47
2022-08-07T04:54:02.016Z,50.11
2022-08-07T04:54:50.356Z,55.79
2022-08-07T04:58:10.152Z,54.77
2022-08-07T04:58:11.027Z,61.29
2022-08-07T04:58:12.540Z,57.07
2022-08-07T05:00:12.833Z,51.73
2022-08-07T05:00:45.516Z,48.36
2022-08-07T05:01:44.443Z,55.40
2022-08-07T05:02:44.441Z,57.45
2022-08-07T05:04:07.064Z,54.66
2022-08-07T05:04:50.169Z,52.85
2022-08-07T05:05:52.155Z,52.09
2022-08-07T05:06:51.351Z,59.10
2022-08-07T05:07:45.458Z,51.14
2022-08-07T05:08:59.519Z,47.20
2022-08-07T05:09:46.970Z,46.37
2022-08-07T05:10:44.368Z,57.44
2022-08-07T05:11:57.333Z,54.17
2022-08-07T05:12:46.314Z,57.57
2022-08-07T05:14:55.529Z,58.47
2022-08-07T05:14:55.622Z,56.83
2022-08-07T05:15:45.323Z,51.23
2022-08-07T05:16:45.410Z,53.79
2022-08-07T05:17:52.203Z,49.60
2022-08-07T05:18:45.295Z,50.84
2022-08-07T05:19:45.087Z,53.45
2022-08-07T05:20:44.366Z,56.72
2022-08-07T05:22:00.093Z,51.86
2022-08-07T05:22:45.258Z,51.25
2022-08-07T05:23:44.252Z,47.67
2022-08-07T05:24:44.255Z,47.86
2022-08-07T05:26:12.899Z,48.63
2022-08-07T05:26:46.234Z,57.54
2022-08-07T05:28:02.554Z,52.55
2022-08-07T05:28:48.540Z,57.25
2022-08-07T05:29:50.985Z,55.53
2022-08-07T05:30:47.145Z,46.02
2022-08-07T05:31:47.471Z,51.56
2022-08-07T05:32:45.180Z,55.04
2022-08-07T05:34:01.090Z,52.92
2022-08-07T05:34:45.165Z,47.93
2022-08-07T05:35:44.160Z,50.06
2022-08-07T05:36:44.154Z,50.99
2022-08-07T05:37:45.139Z,47.58
2022-08-07T05:39:00.981Z,50.77
2022-08-07T05:40:13.877Z,54.06
2022-08-07T05:40:51.365Z,52.52
2022-08-07T05:42:01.194Z,56.01
2022-08-07T05:42:55.958Z,49.05
2022-08-07T05:44:08.472Z,44.60
2022-08-07T05:44:46.764Z,59.79
2022-08-07T05:45:46.499Z,46.94
2022-08-07T05:46:44.074Z,55.66
2022-08-07T05:48:01.596Z,55.23
2022-08-07T05:48:58.354Z,52.50
2022-08-07T05:49:45.043Z,51.65
2022-08-07T05:50:44.044Z,51.97
2022-08-07T05:51:46.213Z,55.08
2022-08-07T05:52:44.034Z,52.93
2022-08-07T05:54:12.611Z,54.52
2022-08-07T05:54:55.706Z,58.51
2022-08-07T05:56:02.014Z,53.69
2022-08-07T05:56:44.988Z,51.82
2022-08-07T05:57:44.873Z,50.42
2022-08-07T05:58:49.261Z,47.87
2022-08-07T05:59:55.720Z,49.87
2022-08-07T06:00:46.308Z,50.06
2022-08-07T06:01:45.004Z,52.62
2022-08-07T06:02:43.943Z,47.71
2022-08-07T06:03:56.627Z,61.79
2022-08-07T06:04:44.935Z,59.02
2022-08-07T06:05:48.895Z,50.45
2022-08-07T06:06:46.244Z,49.29
2022-08-07T06:08:12.339Z,56.69
2022-08-07T06:08:45.155Z,51.76
2022-08-07T06:09:56.594Z,55.15
2022-08-07T06:10:44.998Z,54.46
2022-08-07T06:11:43.871Z,50.22
2022-08-07T06:12:43.857Z,53.65
2022-08-07T06:14:13.174Z,46.49
2022-08-07T06:14:49.453Z,51.68
2022-08-07T06:15:45.316Z,53.97
2022-08-07T06:16:43.827Z,51.14
2022-08-07T06:17:53.383Z,52.17
2022-08-07T06:18:51.569Z,53.59
2022-08-07T06:19:57.880Z,58.46
2022-08-07T06:20:50.955Z,54.89
2022-08-07T06:22:16.971Z,60.08
2022-08-07T06:22:50.677Z,53.81
2022-08-07T06:23:46.826Z,44.77
2022-08-07T06:24:58.159Z,54.65
2022-08-07T06:25:54.095Z,53.28
2022-08-07T06:26:45.588Z,47.12
2022-08-07T06:28:00.904Z,55.80
2022-08-07T06:28:44.732Z,46.42
2022-08-07T06:29:43.721Z,55.76
2022-08-07T06:30:45.977Z,52.93
2022-08-07T06:31:50.028Z,57.04
2022-08-07T06:32:43.711Z,51.58
2022-08-07T06:33:43.694Z,51.77
2022-08-07T06:34:45.363Z,48.30
2022-08-07T06:35:45.534Z,50.75
2022-08-07T06:36:44.670Z,55.82
2022-08-07T06:37:44.755Z,56.60
2022-08-07T06:38:59.433Z,52.43
2022-08-07T06:40:17.434Z,55.23
2022-08-07T06:40:45.950Z,56.62
2022-08-07T06:42:02.477Z,55.36
2022-08-07T06:42:46.635Z,57.07
2022-08-07T06:43:46.526Z,55.91
2022-08-07T06:44:44.607Z,51.69
2022-08-07T06:45:44.836Z,53.74
2022-08-07T06:46:43.596Z,53.18
2022-08-07T06:47:44.588Z,49.85
2022-08-07T06:48:44.804Z,57.13
2022-08-07T06:49:52.116Z,56.65
2022-08-07T06:50:47.845Z,62.65
2022-08-07T06:51:49.943Z,57.92
2022-08-07T06:52:45.197Z,58.26
2022-08-07T06:55:28.773Z,58.34
2022-08-07T06:55:31.492Z,60.65
2022-08-07T06:55:53.396Z,59.03
2022-08-07T06:56:48.622Z,54.38
2022-08-07T06:57:49.930Z,61.24
2022-08-07T07:00:12.200Z,57.00
2022-08-07T07:00:12.531Z,51.34
2022-08-07T07:00:44.474Z,58.59
2022-08-07T07:01:48.662Z,59.71
2022-08-07T07:02:54.553Z,58.14
2022-08-07T07:03:48.157Z,62.64
2022-08-07T07:04:43.631Z,61.35
2022-08-07T07:06:05.453Z,55.56
2022-08-07T07:07:00.474Z,58.16
2022-08-07T07:07:59.816Z,54.87
2022-08-07T07:08:46.656Z,53.32
2022-08-07T07:09:43.409Z,50.49
2022-08-07T07:10:47.386Z,52.23
2022-08-07T07:12:08.867Z,54.08
2022-08-07T07:12:48.935Z,52.03
2022-08-07T07:13:58.654Z,55.39
2022-08-07T07:14:44.363Z,57.20
2022-08-07T07:15:43.426Z,55.18
2022-08-07T07:16:49.749Z,57.88
2022-08-07T07:17:45.443Z,55.83
2022-08-07T07:18:48.190Z,58.08
2022-08-07T07:19:57.068Z,61.00
2022-08-07T07:20:44.380Z,64.30
2022-08-07T07:22:05.039Z,56.72
2022-08-07T07:24:05.386Z,55.38
2022-08-07T07:24:08.570Z,55.50
2022-08-07T07:24:57.061Z,57.66
2022-08-07T07:26:33.003Z,58.81
2022-08-07T07:26:51.792Z,59.75
2022-08-07T07:28:02.212Z,57.94
2022-08-07T07:29:39.180Z,53.80
2022-08-07T07:30:08.772Z,55.97
2022-08-07T07:30:44.240Z,56.85
2022-08-07T07:31:44.527Z,56.67
2022-08-07T07:32:43.221Z,57.67
2022-08-07T07:33:43.222Z,59.01
2022-08-07T07:34:44.219Z,59.99
2022-08-07T07:35:44.036Z,58.42
2022-08-07T07:36:44.188Z,61.46
2022-08-07T07:37:45.497Z,59.40
2022-08-07T07:38:46.143Z,58.71
2022-08-07T07:39:52.262Z,60.10
2022-08-07T07:40:44.193Z,58.95
2022-08-07T07:41:50.816Z,55.49
2022-08-07T07:42:47.088Z,57.81
2022-08-07T07:43:47.796Z,56.59
2022-08-07T07:44:45.045Z,55.54
2022-08-07T07:46:38.022Z,60.32
2022-08-07T07:46:55.640Z,58.38
2022-08-07T07:47:52.720Z,54.89
2022-08-07T07:48:45.526Z,58.46
2022-08-07T07:50:34.944Z,59.25
2022-08-07T07:50:44.081Z,59.98
2022-08-07T07:51:58.270Z,60.46
2022-08-07T07:52:44.046Z,61.22
2022-08-07T07:53:52.035Z,57.86
2022-08-07T07:54:50.839Z,56.07
2022-08-07T07:55:45.734Z,59.47
2022-08-07T07:56:44.041Z,58.00
2022-08-07T07:57:52.223Z,59.83
2022-08-07T07:58:44.004Z,59.61
2022-08-07T07:59:52.574Z,56.91
2022-08-07T08:00:47.803Z,60.08
2022-08-07T08:02:02.379Z,54.26
2022-08-07T08:03:05.799Z,55.53
2022-08-07T08:04:10.990Z,57.33
2022-08-07T08:04:44.097Z,55.22
2022-08-07T08:05:54.833Z,58.89
2022-08-07T08:06:52.189Z,58.47
2022-08-07T08:07:59.976Z,54.55
2022-08-07T08:08:44.923Z,57.43
2022-08-07T08:09:52.343Z,57.08
2022-08-07T08:10:43.909Z,58.85
2022-08-07T08:11:59.834Z,56.75
2022-08-07T08:12:52.252Z,56.63
2022-08-07T08:13:54.130Z,55.76
2022-08-07T08:14:43.879Z,53.53
2022-08-07T08:15:58.046Z,56.26
2022-08-07T08:16:50.474Z,57.18
2022-08-07T08:17:57.097Z,60.58
2022-08-07T08:18:45.154Z,51.44
2022-08-07T08:20:17.276Z,58.13
2022-08-07T08:20:43.826Z,59.01
2022-08-07T08:22:00.554Z,61.86
2022-08-07T08:22:54.107Z,64.13
2022-08-07T08:23:43.821Z,56.18
2022-08-07T08:24:45.305Z,54.73
2022-08-07T08:25:49.455Z,54.70
2022-08-07T08:26:43.807Z,56.38
2022-08-07T08:27:43.975Z,54.18
2022-08-07T08:28:45.109Z,57.46
2022-08-07T08:29:54.201Z,55.25
2022-08-07T08:30:50.888Z,57.71
2022-08-07T08:31:59.038Z,56.53
2022-08-07T08:32:48.443Z,55.95
2022-08-07T08:33:48.972Z,57.84
2022-08-07T08:34:44.957Z,57.22
2022-08-07T08:35:47.103Z,54.96
2022-08-07T08:36:46.298Z,60.22
2022-08-07T08:38:01.579Z,58.75
2022-08-07T08:38:44.626Z,57.49
2022-08-07T08:39:55.084Z,58.94
2022-08-07T08:40:43.908Z,59.30
2022-08-07T08:41:58.234Z,54.54
2022-08-07T08:42:43.660Z,55.95
2022-08-07T08:43:43.327Z,58.06
2022-08-07T08:44:44.485Z,55.93
2022-08-07T08:45:59.261Z,59.54
2022-08-07T08:46:44.948Z,54.96
2022-08-07T08:47:52.784Z,57.53
2022-08-07T08:48:43.613Z,63.50
2022-08-07T08:49:46.833Z,62.91
2022-08-07T08:50:43.597Z,58.62
2022-08-07T08:52:13.119Z,59.17
2022-08-07T08:52:54.205Z,60.61
2022-08-07T08:53:43.567Z,59.01
2022-08-07T08:54:42.572Z,56.87
2022-08-07T08:55:55.309Z,58.76
2022-08-07T08:56:47.517Z,58.94
2022-08-07T08:57:42.540Z,62.93
2022-08-07T08:58:42.531Z,64.56
2022-08-07T08:59:48.274Z,56.41
2022-08-07T09:00:48.622Z,57.73
2022-08-07T09:01:46.609Z,57.23
2022-08-07T09:02:42.634Z,56.59
2022-08-07T09:03:48.094Z,61.62
2022-08-07T09:04:43.490Z,65.16
2022-08-07T09:05:42.488Z,65.43
2022-08-07T09:06:42.884Z,62.29
2022-08-07T09:07:46.272Z,59.27
2022-08-07T09:08:43.455Z,58.22
2022-08-07T09:09:42.449Z,59.09
2022-08-07T09:10:44.329Z,58.02
2022-08-07T09:11:51.238Z,54.87
2022-08-07T09:12:53.563Z,59.75
2022-08-07T09:13:42.419Z,58.10
2022-08-07T09:14:42.414Z,56.13
2022-08-07T09:16:22.033Z,59.33
2022-08-07T09:16:43.409Z,58.74
2022-08-07T09:17:58.941Z,63.14
2022-08-07T09:18:47.374Z,58.86
2022-08-07T09:19:52.214Z,58.66
2022-08-07T09:20:43.372Z,66.03
2022-08-07T09:22:22.398Z,53.33
2022-08-07T09:24:32.306Z,62.38
2022-08-07T09:24:33.845Z,58.59
2022-08-07T09:24:59.428Z,54.65
2022-08-07T09:25:43.340Z,56.24
2022-08-07T09:26:47.807Z,56.81
2022-08-07T09:28:00.436Z,57.59
2022-08-07T09:30:06.239Z,57.67
2022-08-07T09:30:06.370Z,54.83
2022-08-07T09:30:46.166Z,68.12
2022-08-07T09:31:49.139Z,60.98
2022-08-07T09:32:43.290Z,54.71
2022-08-07T09:33:56.817Z,59.87
2022-08-07T09:34:43.310Z,58.61
2022-08-07T09:36:03.282Z,57.59
2022-08-07T09:36:46.818Z,63.47
2022-08-07T09:37:48.194Z,63.16
2022-08-07T09:38:43.223Z,56.94
2022-08-07T09:39:54.794Z,59.09
2022-08-07T09:40:43.205Z,60.28
2022-08-07T09:41:43.211Z,58.53
2022-08-07T09:42:44.090Z,60.71
2022-08-07T09:44:05.725Z,60.97
2022-08-07T09:44:52.198Z,60.91
2022-08-07T09:47:25.813Z,59.02
2022-08-07T09:47:51.623Z,59.42
2022-08-07T09:47:59.170Z,58.08
2022-08-07T09:49:02.567Z,59.77
2022-08-07T09:49:59.553Z,61.88
2022-08-07T09:50:43.132Z,58.72
2022-08-07T09:52:16.305Z,61.24
2022-08-07T09:52:43.113Z,61.85
2022-08-07T09:53:50.108Z,58.05
2022-08-07T09:54:43.114Z,60.78
2022-08-07T09:56:03.221Z,58.77
2022-08-07T09:56:43.084Z,55.29
2022-08-07T09:57:46.622Z,61.42
2022-08-07T09:58:42.421Z,58.99
2022-08-07T09:59:46.105Z,57.95
2022-08-07T10:00:42.059Z,57.24
2022-08-07T10:01:51.275Z,59.15
2022-08-07T10:02:53.666Z,57.69
2022-08-07T10:04:06.535Z,57.73
2022-08-07T10:04:46.063Z,58.13
2022-08-07T10:06:00.748Z,58.40
2022-08-07T10:06:49.107Z,60.15
2022-08-07T10:07:53.755Z,58.34
2022-08-07T10:08:42.994Z,58.01
2022-08-07T10:09:59.308Z,58.95
2022-08-07T10:11:16.297Z,67.13
2022-08-07T10:12:01.860Z,58.99
2022-08-07T10:12:52.785Z,61.91
2022-08-07T10:14:00.243Z,60.52
2022-08-07T10:14:43.675Z,56.71
2022-08-07T10:15:44.675Z,60.37
2022-08-07T10:16:41.927Z,59.17
2022-08-07T10:18:00.975Z,59.19
2022-08-07T10:18:42.917Z,59.12
2022-08-07T10:19:41.993Z,63.16
2022-08-07T10:20:41.892Z,62.50
2022-08-07T10:22:12.418Z,62.78
2022-08-07T10:22:43.226Z,60.18
2022-08-07T10:24:05.920Z,55.39
2022-08-07T10:24:42.871Z,57.38
2022-08-07T10:25:43.077Z,59.71
2022-08-07T10:26:41.856Z,55.16
2022-08-07T10:27:46.228Z,58.04
2022-08-07T10:28:43.437Z,58.00
2022-08-07T10:29:45.905Z,61.72
2022-08-07T10:30:43.827Z,57.81
2022-08-07T10:31:42.994Z,60.98
2022-08-07T10:32:52.849Z,57.43
2022-08-07T10:34:05.914Z,59.47
2022-08-07T10:34:45.259Z,59.10
2022-08-07T10:35:56.601Z,54.87
2022-08-07T10:36:42.809Z,60.00
2022-08-07T10:38:00.197Z,61.35
2022-08-07T10:38:48.845Z,61.67
2022-08-07T10:40:03.350Z,66.95
2022-08-07T10:40:42.753Z,58.77
2022-08-07T10:41:51.261Z,59.27
2022-08-07T10:42:42.727Z,58.09
2022-08-07T10:43:41.733Z,57.66
2022-08-07T10:44:45.373Z,57.03
2022-08-07T10:45:44.420Z,58.53
2022-08-07T10:46:41.707Z,57.77
2022-08-07T10:47:51.432Z,59.35
2022-08-07T10:48:44.163Z,58.22
2022-08-07T10:49:41.682Z,59.06
2022-08-07T10:50:44.900Z,57.19
2022-08-07T10:52:01.909Z,63.01
2022-08-07T10:52:42.785Z,60.72
2022-08-07T10:53:44.693Z,65.09
2022-08-07T10:54:42.200Z,61.92
2022-08-07T10:55:42.638Z,60.84
2022-08-07T10:56:41.912Z,61.93
2022-08-07T10:57:41.631Z,61.29
2022-08-07T10:58:41.654Z,60.04
2022-08-07T10:59:45.381Z,61.89
2022-08-07T11:00:43.300Z,61.14
2022-08-07T11:01:51.999Z,61.36
2022-08-07T11:02:42.620Z,62.87
2022-08-07T11:03:52.740Z,61.25
2022-08-07T11:04:42.566Z,55.89
2022-08-07T11:05:50.982Z,57.36
2022-08-07T11:06:44.529Z,61.07
2022-08-07T11:08:00.297Z,59.16
2022-08-07T11:08:42.539Z,58.10
2022-08-07T11:10:09.318Z,60.61
2022-08-07T11:10:42.522Z,58.88
2022-08-07T11:11:42.773Z,58.07
2022-08-07T11:12:43.172Z,60.86
2022-08-07T11:14:44.339Z,58.80
2022-08-07T11:14:59.766Z,60.52
2022-08-07T11:15:42.504Z,57.45
2022-08-07T11:16:42.479Z,62.17
2022-08-07T11:17:44.324Z,62.66
2022-08-07T11:18:41.466Z,61.27
2022-08-07T11:19:41.489Z,60.22
2022-08-07T11:20:41.451Z,61.20
2022-08-07T11:21:43.094Z,62.62
2022-08-07T11:22:45.651Z,57.29
2022-08-07T11:23:41.427Z,61.79
2022-08-07T11:24:45.512Z,60.61
2022-08-07T11:25:48.265Z,62.00
2022-08-07T11:26:48.170Z,60.66
2022-08-07T11:28:03.036Z,60.58
2022-08-07T11:28:42.469Z,61.09
2022-08-07T11:29:47.254Z,58.09
2022-08-07T11:30:42.505Z,59.30
2022-08-07T11:31:41.363Z,56.89
2022-08-07T11:32:41.355Z,57.74
2022-08-07T11:33:54.385Z,57.55
2022-08-07T11:34:42.544Z,61.35
2022-08-07T11:35:59.855Z,60.98
2022-08-07T11:36:42.340Z,61.82
2022-08-07T11:38:10.278Z,60.34
2022-08-07T11:38:42.307Z,63.65
2022-08-07T11:40:00.138Z,61.50
2022-08-07T11:40:42.291Z,59.28
2022-08-07T11:42:01.922Z,59.56
2022-08-07T11:42:42.271Z,58.58
2022-08-07T11:44:11.346Z,59.04
2022-08-07T11:44:52.296Z,55.59
2022-08-07T11:45:53.450Z,59.50
2022-08-07T11:46:42.241Z,57.93
2022-08-07T11:47:58.912Z,57.38
2022-08-07T11:48:53.824Z,56.26
2022-08-07T11:50:11.313Z,58.19
2022-08-07T11:50:44.310Z,58.72
2022-08-07T11:51:45.054Z,61.39
2022-08-07T11:52:41.207Z,58.26
2022-08-07T11:53:43.232Z,60.31
2022-08-07T11:54:42.190Z,59.06
2022-08-07T11:56:15.705Z,61.61
2022-08-07T11:56:42.169Z,60.01
2022-08-07T11:58:00.690Z,62.83
2022-08-07T11:58:42.148Z,59.68
2022-08-07T12:00:12.127Z,60.58
2022-08-07T12:00:42.137Z,61.65
2022-08-07T12:02:00.060Z,61.94
2022-08-07T12:02:42.148Z,62.30
2022-08-07T12:03:45.319Z,60.41
2022-08-07T12:04:41.105Z,60.81
2022-08-07T12:05:49.110Z,61.57
2022-08-07T12:06:50.837Z,59.71
2022-08-07T12:07:42.233Z,60.02
2022-08-07T12:08:42.533Z,59.94
2022-08-07T12:09:41.103Z,61.85
2022-08-07T12:10:41.949Z,59.90
2022-08-07T12:11:43.385Z,59.51
2022-08-07T12:12:42.075Z,59.93
2022-08-07T12:13:44.919Z,60.45
2022-08-07T12:14:43.019Z,60.94
2022-08-07T12:16:05.795Z,61.59
2022-08-07T12:16:42.028Z,60.31
2022-08-07T12:17:55.895Z,57.87
2022-08-07T12:18:45.583Z,61.15
2022-08-07T12:20:05.390Z,59.08
2022-08-07T12:20:41.987Z,61.70
2022-08-07T12:22:36.053Z,63.61
2022-08-07T12:22:47.288Z,64.30
2022-08-07T12:24:06.651Z,59.14
2022-08-07T12:24:41.947Z,64.45
2022-08-07T12:26:03.310Z,62.01
2022-08-07T12:26:46.611Z,60.04
2022-08-07T12:28:08.924Z,62.29
2022-08-07T12:28:44.949Z,62.04
2022-08-07T12:29:40.906Z,58.58
2022-08-07T12:30:40.891Z,58.22
2022-08-07T12:32:01.852Z,59.57
2022-08-07T12:32:41.894Z,59.97
2022-08-07T12:33:56.581Z,61.60
2022-08-07T12:34:42.103Z,60.17
2022-08-07T12:35:41.861Z,61.40
2022-08-07T12:36:42.259Z,61.25
2022-08-07T12:38:10.638Z,64.45
2022-08-07T12:38:43.394Z,59.57
2022-08-07T12:39:42.251Z,61.84
2022-08-07T12:40:50.164Z,60.64
2022-08-07T12:41:51.763Z,58.56
2022-08-07T12:42:41.790Z,59.14
2022-08-07T12:44:01.533Z,59.59
2022-08-07T12:44:44.884Z,61.77
2022-08-07T12:45:40.770Z,62.79
2022-08-07T12:46:40.753Z,60.26
2022-08-07T12:47:40.774Z,61.47
2022-08-07T12:48:41.433Z,60.31
2022-08-07T12:49:48.756Z,63.68
2022-08-07T12:50:48.732Z,60.54
2022-08-07T12:51:51.291Z,61.06
2022-08-07T12:52:41.719Z,58.43
2022-08-07T12:54:03.036Z,59.81
2022-08-07T12:54:41.692Z,61.86
2022-08-07T12:56:02.504Z,58.26